This is the latest recevied weather packets stored in our database for station/object N8QF. If no packets are shown the sender has not sent any weather packets the latest 10 day(s).
| Time | Temp. | Humidity | Pressure | Rain* | Wind** | Luminosity | Snow |
|---|---|---|---|---|---|---|---|
| 1777905545 | 17.22° C | 61% | 1008.3 hPa | 0 mm | - | - | - |
| 1777905245 | 16.67° C | 63% | 1008.2 hPa | 0 mm | - | - | - |
| 1777904944 | 16.11° C | 61% | 1008.3 hPa | 0 mm | - | - | - |
| 1777904644 | 16.11° C | 63% | 1008.4 hPa | 0 mm | - | - | - |
| 1777904344 | 15.56° C | 62% | 1008.5 hPa | 0 mm | - | - | - |
| 1777904044 | 15.56° C | 62% | 1008.5 hPa | 0 mm | - | - | - |
| 1777903743 | 16.11° C | 64% | 1008.6 hPa | 0 mm | - | - | - |
| 1777903443 | 15.56° C | 61% | 1008.8 hPa | 0 mm | - | - | - |
| 1777903143 | 15.56° C | 62% | 1008.8 hPa | 0 mm | - | - | - |
| 1777902843 | 15.56° C | 64% | 1008.8 hPa | 0 mm | - | - | - |
| 1777902542 | 15° C | 64% | 1008.9 hPa | 0 mm | - | - | - |
| 1777902242 | 15° C | 65% | 1008.9 hPa | 0 mm | - | - | - |
| 1777901942 | 14.44° C | 65% | 1008.9 hPa | 0 mm | - | - | - |
| 1777901341 | 14.44° C | 65% | 1008.9 hPa | 0 mm | - | - | - |
| 1777901041 | 14.44° C | 66% | 1008.9 hPa | 0 mm | - | - | - |
| 1777900741 | 14.44° C | 68% | 1008.8 hPa | 0 mm | - | - | - |
| 1777900440 | 13.89° C | 68% | 1008.6 hPa | 0 mm | - | - | - |
| 1777900140 | 13.89° C | 68% | 1008.8 hPa | 0 mm | - | - | - |
| 1777899840 | 13.33° C | 68% | 1008.8 hPa | 0 mm | - | - | - |
| 1777899540 | 13.33° C | 68% | 1008.9 hPa | 0 mm | - | - | - |
| 1777899240 | 13.33° C | 68% | 1008.9 hPa | 0 mm | - | - | - |
| 1777898939 | 13.33° C | 68% | 1008.9 hPa | 0 mm | - | - | - |
| 1777898637 | 12.78° C | 68% | 1008.9 hPa | 0 mm | - | - | - |
| 1777898337 | 12.78° C | 68% | 1008.9 hPa | 0 mm | - | - | - |
| 1777898036 | 12.78° C | 68% | 1008.9 hPa | 0 mm | - | - | - |
* Rain since midnight (hover to see other rain measurements)
** Current wind speed in m/s (hover to see current wind gust speed)